sensor_id;sensor_type;location;lat;lon;timestamp;P1;durP1;ratioP1;P2;durP2;ratioP2
3817;SDS011;1924;48.078;11.516;2023-04-16T05:08:57;26.50;;;0.80;;
3817;SDS011;1924;48.078;11.516;2023-04-16T06:12:38;26.30;;;0.70;;
3817;SDS011;1924;48.078;11.516;2023-04-16T06:15:07;26.30;;;0.80;;
3817;SDS011;1924;48.078;11.516;2023-04-16T06:17:34;26.30;;;0.70;;
3817;SDS011;1924;48.078;11.516;2023-04-16T06:20:01;26.10;;;0.70;;
3817;SDS011;1924;48.078;11.516;2023-04-16T06:22:31;26.20;;;0.80;;
3817;SDS011;1924;48.078;11.516;2023-04-16T06:24:59;26.10;;;0.70;;
3817;SDS011;1924;48.078;11.516;2023-04-16T06:27:26;26.40;;;0.70;;
3817;SDS011;1924;48.078;11.516;2023-04-16T06:29:55;26.20;;;0.80;;
3817;SDS011;1924;48.078;11.516;2023-04-16T06:32:24;26.07;;;0.80;;
3817;SDS011;1924;48.078;11.516;2023-04-16T06:34:59;26.27;;;0.80;;
3817;SDS011;1924;48.078;11.516;2023-04-16T06:37:27;26.30;;;0.73;;
3817;SDS011;1924;48.078;11.516;2023-04-16T06:39:54;26.40;;;0.70;;
3817;SDS011;1924;48.078;11.516;2023-04-16T06:42:20;26.40;;;0.80;;
3817;SDS011;1924;48.078;11.516;2023-04-16T06:44:47;26.30;;;0.70;;
3817;SDS011;1924;48.078;11.516;2023-04-16T06:47:15;26.27;;;0.70;;
3817;SDS011;1924;48.078;11.516;2023-04-16T06:49:42;26.40;;;0.70;;
3817;SDS011;1924;48.078;11.516;2023-04-16T06:52:09;26.50;;;0.80;;
3817;SDS011;1924;48.078;11.516;2023-04-16T06:54:36;26.50;;;0.70;;
3817;SDS011;1924;48.078;11.516;2023-04-16T06:57:03;26.57;;;0.80;;
3817;SDS011;1924;48.078;11.516;2023-04-16T06:59:30;26.50;;;0.77;;
3817;SDS011;1924;48.078;11.516;2023-04-16T07:01:57;26.50;;;0.70;;
3817;SDS011;1924;48.078;11.516;2023-04-16T07:04:25;26.30;;;0.70;;
3817;SDS011;1924;48.078;11.516;2023-04-16T07:06:52;26.50;;;0.70;;
3817;SDS011;1924;48.078;11.516;2023-04-16T07:09:19;26.50;;;0.70;;
3817;SDS011;1924;48.078;11.516;2023-04-16T07:11:45;26.40;;;0.80;;
3817;SDS011;1924;48.078;11.516;2023-04-16T07:14:12;26.47;;;0.77;;
3817;SDS011;1924;48.078;11.516;2023-04-16T07:16:39;26.40;;;0.70;;
3817;SDS011;1924;48.078;11.516;2023-04-16T07:19:06;26.40;;;0.70;;
3817;SDS011;1924;48.078;11.516;2023-04-16T07:21:34;26.30;;;0.70;;
3817;SDS011;1924;48.078;11.516;2023-04-16T07:24:01;26.30;;;0.70;;
3817;SDS011;1924;48.078;11.516;2023-04-16T07:26:28;26.27;;;0.70;;
3817;SDS011;1924;48.078;11.516;2023-04-16T07:28:55;26.30;;;0.70;;
3817;SDS011;1924;48.078;11.516;2023-04-16T07:31:21;26.40;;;0.70;;
3817;SDS011;1924;48.078;11.516;2023-04-16T07:33:48;26.30;;;0.70;;
3817;SDS011;1924;48.078;11.516;2023-04-16T07:36:15;26.30;;;0.70;;
3817;SDS011;1924;48.078;11.516;2023-04-16T07:38:43;26.40;;;0.70;;
3817;SDS011;1924;48.078;11.516;2023-04-16T07:41:09;26.70;;;0.77;;
3817;SDS011;1924;48.078;11.516;2023-04-16T07:43:36;26.40;;;0.70;;
3817;SDS011;1924;48.078;11.516;2023-04-16T07:46:03;26.30;;;0.70;;
3817;SDS011;1924;48.078;11.516;2023-04-16T07:48:30;26.40;;;0.70;;
3817;SDS011;1924;48.078;11.516;2023-04-16T07:51:05;26.20;;;0.70;;
3817;SDS011;1924;48.078;11.516;2023-04-16T07:53:32;26.40;;;0.80;;
3817;SDS011;1924;48.078;11.516;2023-04-16T07:56:00;26.40;;;0.70;;
3817;SDS011;1924;48.078;11.516;2023-04-16T07:58:27;26.40;;;0.70;;
3817;SDS011;1924;48.078;11.516;2023-04-16T08:00:53;26.40;;;0.70;;
3817;SDS011;1924;48.078;11.516;2023-04-16T08:03:20;26.60;;;0.70;;
3817;SDS011;1924;48.078;11.516;2023-04-16T08:05:47;26.57;;;0.70;;
3817;SDS011;1924;48.078;11.516;2023-04-16T08:08:14;26.60;;;0.70;;
3817;SDS011;1924;48.078;11.516;2023-04-16T08:10:41;26.50;;;0.70;;
3817;SDS011;1924;48.078;11.516;2023-04-16T08:13:09;26.30;;;0.70;;
3817;SDS011;1924;48.078;11.516;2023-04-16T08:15:35;26.50;;;0.70;;
3817;SDS011;1924;48.078;11.516;2023-04-16T08:18:02;26.50;;;0.70;;
3817;SDS011;1924;48.078;11.516;2023-04-16T08:20:29;26.50;;;0.80;;
3817;SDS011;1924;48.078;11.516;2023-04-16T08:22:56;26.50;;;0.70;;
3817;SDS011;1924;48.078;11.516;2023-04-16T08:25:23;26.60;;;0.70;;
3817;SDS011;1924;48.078;11.516;2023-04-16T08:27:50;26.43;;;0.70;;
3817;SDS011;1924;48.078;11.516;2023-04-16T08:30:18;26.50;;;0.73;;
3817;SDS011;1924;48.078;11.516;2023-04-16T08:32:45;26.50;;;0.70;;
3817;SDS011;1924;48.078;11.516;2023-04-16T08:35:12;26.50;;;0.80;;
3817;SDS011;1924;48.078;11.516;2023-04-16T08:37:39;26.50;;;0.70;;
3817;SDS011;1924;48.078;11.516;2023-04-16T08:40:06;26.60;;;0.70;;
3817;SDS011;1924;48.078;11.516;2023-04-16T08:42:36;26.70;;;0.80;;
3817;SDS011;1924;48.078;11.516;2023-04-16T08:45:08;26.70;;;0.73;;
3817;SDS011;1924;48.078;11.516;2023-04-16T08:47:42;26.50;;;0.70;;
3817;SDS011;1924;48.078;11.516;2023-04-16T08:50:12;26.50;;;0.80;;
3817;SDS011;1924;48.078;11.516;2023-04-16T08:52:42;26.70;;;0.70;;
3817;SDS011;1924;48.078;11.516;2023-04-16T08:55:12;26.80;;;0.80;;
3817;SDS011;1924;48.078;11.516;2023-04-16T08:57:42;26.70;;;0.70;;
3817;SDS011;1924;48.078;11.516;2023-04-16T09:00:12;26.60;;;0.77;;
3817;SDS011;1924;48.078;11.516;2023-04-16T09:02:42;26.80;;;0.70;;
3817;SDS011;1924;48.078;11.516;2023-04-16T09:05:09;26.90;;;0.80;;
3817;SDS011;1924;48.078;11.516;2023-04-16T09:07:41;27.00;;;0.70;;
3817;SDS011;1924;48.078;11.516;2023-04-16T09:10:09;27.10;;;0.70;;
3817;SDS011;1924;48.078;11.516;2023-04-16T09:12:37;26.90;;;0.70;;
3817;SDS011;1924;48.078;11.516;2023-04-16T09:15:06;26.93;;;0.70;;
3817;SDS011;1924;48.078;11.516;2023-04-16T09:17:34;27.00;;;0.70;;
3817;SDS011;1924;48.078;11.516;2023-04-16T09:20:03;27.10;;;0.73;;
3817;SDS011;1924;48.078;11.516;2023-04-16T09:22:32;27.20;;;0.70;;
3817;SDS011;1924;48.078;11.516;2023-04-16T09:24:59;27.10;;;0.73;;
3817;SDS011;1924;48.078;11.516;2023-04-16T09:27:26;27.10;;;0.70;;
3817;SDS011;1924;48.078;11.516;2023-04-16T09:29:55;26.90;;;0.70;;
3817;SDS011;1924;48.078;11.516;2023-04-16T09:32:23;27.00;;;0.70;;
3817;SDS011;1924;48.078;11.516;2023-04-16T09:34:55;27.00;;;0.80;;
3817;SDS011;1924;48.078;11.516;2023-04-16T09:37:24;27.10;;;0.80;;
3817;SDS011;1924;48.078;11.516;2023-04-16T09:39:54;27.10;;;0.80;;
3817;SDS011;1924;48.078;11.516;2023-04-16T09:42:23;27.20;;;0.80;;
3817;SDS011;1924;48.078;11.516;2023-04-16T09:44:52;26.90;;;0.80;;
3817;SDS011;1924;48.078;11.516;2023-04-16T09:47:19;27.30;;;0.80;;
3817;SDS011;1924;48.078;11.516;2023-04-16T09:49:46;27.10;;;0.80;;
3817;SDS011;1924;48.078;11.516;2023-04-16T09:52:13;27.10;;;0.73;;
3817;SDS011;1924;48.078;11.516;2023-04-16T09:54:46;27.20;;;0.73;;
3817;SDS011;1924;48.078;11.516;2023-04-16T09:57:16;26.90;;;0.73;;
3817;SDS011;1924;48.078;11.516;2023-04-16T09:59:44;27.07;;;0.73;;
3817;SDS011;1924;48.078;11.516;2023-04-16T10:02:11;27.10;;;0.80;;
3817;SDS011;1924;48.078;11.516;2023-04-16T10:04:48;27.10;;;0.70;;
3817;SDS011;1924;48.078;11.516;2023-04-16T10:07:15;27.10;;;0.70;;
3817;SDS011;1924;48.078;11.516;2023-04-16T10:09:43;27.10;;;0.80;;
3817;SDS011;1924;48.078;11.516;2023-04-16T10:12:13;26.97;;;0.73;;
3817;SDS011;1924;48.078;11.516;2023-04-16T10:14:41;27.10;;;0.70;;
3817;SDS011;1924;48.078;11.516;2023-04-16T10:17:08;27.00;;;0.80;;
3817;SDS011;1924;48.078;11.516;2023-04-16T10:19:35;27.00;;;0.70;;
3817;SDS011;1924;48.078;11.516;2023-04-16T10:22:02;26.80;;;0.70;;
3817;SDS011;1924;48.078;11.516;2023-04-16T10:24:29;26.90;;;0.70;;
3817;SDS011;1924;48.078;11.516;2023-04-16T10:26:57;26.97;;;0.77;;
3817;SDS011;1924;48.078;11.516;2023-04-16T10:29:26;26.70;;;0.70;;
3817;SDS011;1924;48.078;11.516;2023-04-16T10:31:55;26.70;;;0.70;;
3817;SDS011;1924;48.078;11.516;2023-04-16T10:34:23;27.00;;;0.80;;
3817;SDS011;1924;48.078;11.516;2023-04-16T10:36:50;27.10;;;0.70;;
3817;SDS011;1924;48.078;11.516;2023-04-16T10:39:19;26.90;;;0.80;;
3817;SDS011;1924;48.078;11.516;2023-04-16T10:41:47;27.00;;;0.80;;
3817;SDS011;1924;48.078;11.516;2023-04-16T10:44:15;26.90;;;0.70;;
3817;SDS011;1924;48.078;11.516;2023-04-16T10:46:45;26.80;;;0.80;;
3817;SDS011;1924;48.078;11.516;2023-04-16T10:49:14;26.80;;;0.80;;
3817;SDS011;1924;48.078;11.516;2023-04-16T10:51:51;26.77;;;0.70;;
3817;SDS011;1924;48.078;11.516;2023-04-16T10:54:19;26.90;;;0.70;;
3817;SDS011;1924;48.078;11.516;2023-04-16T10:56:48;27.00;;;0.70;;
3817;SDS011;1924;48.078;11.516;2023-04-16T10:59:17;26.90;;;0.70;;
3817;SDS011;1924;48.078;11.516;2023-04-16T11:01:47;26.70;;;0.70;;
3817;SDS011;1924;48.078;11.516;2023-04-16T11:04:25;26.80;;;0.70;;
3817;SDS011;1924;48.078;11.516;2023-04-16T11:06:59;26.90;;;0.70;;
3817;SDS011;1924;48.078;11.516;2023-04-16T11:09:49;26.87;;;0.70;;
3817;SDS011;1924;48.078;11.516;2023-04-16T11:12:18;26.90;;;0.80;;
3817;SDS011;1924;48.078;11.516;2023-04-16T11:14:46;26.90;;;0.70;;
3817;SDS011;1924;48.078;11.516;2023-04-16T11:17:15;26.90;;;0.70;;
3817;SDS011;1924;48.078;11.516;2023-04-16T11:19:42;26.80;;;0.70;;
3817;SDS011;1924;48.078;11.516;2023-04-16T11:22:11;26.80;;;0.73;;
3817;SDS011;1924;48.078;11.516;2023-04-16T11:24:39;27.00;;;0.70;;
3817;SDS011;1924;48.078;11.516;2023-04-16T11:27:06;26.90;;;0.77;;
3817;SDS011;1924;48.078;11.516;2023-04-16T11:29:33;26.90;;;0.70;;
3817;SDS011;1924;48.078;11.516;2023-04-16T11:32:08;26.80;;;0.70;;
3817;SDS011;1924;48.078;11.516;2023-04-16T11:34:43;26.90;;;0.70;;
3817;SDS011;1924;48.078;11.516;2023-04-16T11:37:10;26.90;;;0.70;;
3817;SDS011;1924;48.078;11.516;2023-04-16T11:39:47;26.70;;;0.70;;
3817;SDS011;1924;48.078;11.516;2023-04-16T11:42:17;26.80;;;0.80;;
3817;SDS011;1924;48.078;11.516;2023-04-16T11:44:45;26.80;;;0.70;;
3817;SDS011;1924;48.078;11.516;2023-04-16T11:47:12;26.80;;;0.70;;
3817;SDS011;1924;48.078;11.516;2023-04-16T11:49:38;26.60;;;0.70;;
3817;SDS011;1924;48.078;11.516;2023-04-16T11:52:07;26.70;;;0.70;;
3817;SDS011;1924;48.078;11.516;2023-04-16T11:54:33;26.80;;;0.70;;
3817;SDS011;1924;48.078;11.516;2023-04-16T11:57:00;26.90;;;0.80;;
3817;SDS011;1924;48.078;11.516;2023-04-16T11:59:28;26.70;;;0.70;;
3817;SDS011;1924;48.078;11.516;2023-04-16T12:01:55;26.80;;;0.70;;
3817;SDS011;1924;48.078;11.516;2023-04-16T12:04:22;26.70;;;0.70;;
3817;SDS011;1924;48.078;11.516;2023-04-16T12:09:35;26.60;;;0.70;;
3817;SDS011;1924;48.078;11.516;2023-04-16T12:12:03;26.70;;;0.70;;
3817;SDS011;1924;48.078;11.516;2023-04-16T12:14:30;26.60;;;0.70;;
3817;SDS011;1924;48.078;11.516;2023-04-16T12:19:49;26.80;;;0.80;;
3817;SDS011;1924;48.078;11.516;2023-04-16T12:22:18;26.67;;;0.70;;
3817;SDS011;1924;48.078;11.516;2023-04-16T12:24:54;26.70;;;0.77;;
3817;SDS011;1924;48.078;11.516;2023-04-16T12:27:23;26.50;;;0.80;;
3817;SDS011;1924;48.078;11.516;2023-04-16T12:30:01;26.70;;;0.70;;
3817;SDS011;1924;48.078;11.516;2023-04-16T12:32:29;26.70;;;0.70;;
3817;SDS011;1924;48.078;11.516;2023-04-16T12:34:55;26.70;;;0.70;;
3817;SDS011;1924;48.078;11.516;2023-04-16T12:37:24;26.57;;;0.73;;
3817;SDS011;1924;48.078;11.516;2023-04-16T12:39:50;26.80;;;0.70;;
3817;SDS011;1924;48.078;11.516;2023-04-16T12:42:17;26.80;;;0.70;;
3817;SDS011;1924;48.078;11.516;2023-04-16T12:44:44;26.77;;;0.80;;
3817;SDS011;1924;48.078;11.516;2023-04-16T12:47:10;26.70;;;0.70;;
3817;SDS011;1924;48.078;11.516;2023-04-16T12:49:37;26.60;;;0.70;;
3817;SDS011;1924;48.078;11.516;2023-04-16T12:52:04;26.60;;;0.70;;
3817;SDS011;1924;48.078;11.516;2023-04-16T12:54:32;26.60;;;0.70;;
3817;SDS011;1924;48.078;11.516;2023-04-16T12:56:59;26.50;;;0.70;;
3817;SDS011;1924;48.078;11.516;2023-04-16T12:59:28;26.60;;;0.70;;
3817;SDS011;1924;48.078;11.516;2023-04-16T13:01:55;26.60;;;0.80;;
3817;SDS011;1924;48.078;11.516;2023-04-16T13:04:22;26.77;;;0.73;;
3817;SDS011;1924;48.078;11.516;2023-04-16T13:06:48;26.70;;;0.73;;
3817;SDS011;1924;48.078;11.516;2023-04-16T13:09:15;26.60;;;0.70;;
3817;SDS011;1924;48.078;11.516;2023-04-16T13:11:46;26.70;;;0.70;;
3817;SDS011;1924;48.078;11.516;2023-04-16T13:14:13;26.70;;;0.70;;
3817;SDS011;1924;48.078;11.516;2023-04-16T13:16:40;26.80;;;0.70;;
3817;SDS011;1924;48.078;11.516;2023-04-16T13:19:07;26.70;;;0.70;;
3817;SDS011;1924;48.078;11.516;2023-04-16T13:21:33;26.80;;;0.70;;
3817;SDS011;1924;48.078;11.516;2023-04-16T13:24:00;26.70;;;0.70;;
3817;SDS011;1924;48.078;11.516;2023-04-16T13:26:27;26.70;;;0.70;;
3817;SDS011;1924;48.078;11.516;2023-04-16T13:28:55;26.80;;;0.70;;
3817;SDS011;1924;48.078;11.516;2023-04-16T13:31:22;26.80;;;0.70;;
3817;SDS011;1924;48.078;11.516;2023-04-16T13:33:48;26.80;;;0.70;;
3817;SDS011;1924;48.078;11.516;2023-04-16T13:36:15;26.70;;;0.70;;
3817;SDS011;1924;48.078;11.516;2023-04-16T13:38:42;26.87;;;0.70;;
3817;SDS011;1924;48.078;11.516;2023-04-16T13:41:09;26.87;;;0.70;;
3817;SDS011;1924;48.078;11.516;2023-04-16T13:43:36;26.80;;;0.80;;
3817;SDS011;1924;48.078;11.516;2023-04-16T13:46:04;26.67;;;0.70;;
3817;SDS011;1924;48.078;11.516;2023-04-16T13:48:31;26.80;;;0.80;;
3817;SDS011;1924;48.078;11.516;2023-04-16T13:50:58;26.83;;;0.70;;
3817;SDS011;1924;48.078;11.516;2023-04-16T13:53:24;26.67;;;0.70;;
3817;SDS011;1924;48.078;11.516;2023-04-16T13:55:51;26.97;;;0.70;;
3817;SDS011;1924;48.078;11.516;2023-04-16T13:58:18;27.00;;;0.70;;
3817;SDS011;1924;48.078;11.516;2023-04-16T14:00:45;27.00;;;0.70;;
3817;SDS011;1924;48.078;11.516;2023-04-16T14:03:13;26.67;;;0.70;;
3817;SDS011;1924;48.078;11.516;2023-04-16T14:05:39;26.77;;;0.73;;
3817;SDS011;1924;48.078;11.516;2023-04-16T14:08:07;26.70;;;0.73;;
3817;SDS011;1924;48.078;11.516;2023-04-16T14:10:34;26.90;;;0.77;;
3817;SDS011;1924;48.078;11.516;2023-04-16T14:13:01;26.87;;;0.70;;
3817;SDS011;1924;48.078;11.516;2023-04-16T14:15:27;26.90;;;0.70;;
3817;SDS011;1924;48.078;11.516;2023-04-16T14:17:54;26.60;;;0.70;;
3817;SDS011;1924;48.078;11.516;2023-04-16T14:20:22;26.80;;;0.70;;
3817;SDS011;1924;48.078;11.516;2023-04-16T14:22:52;26.70;;;0.70;;
3817;SDS011;1924;48.078;11.516;2023-04-16T14:25:18;26.80;;;0.70;;
3817;SDS011;1924;48.078;11.516;2023-04-16T14:27:45;26.57;;;0.70;;
3817;SDS011;1924;48.078;11.516;2023-04-16T14:30:12;26.67;;;0.80;;
3817;SDS011;1924;48.078;11.516;2023-04-16T14:32:39;26.70;;;0.80;;
3817;SDS011;1924;48.078;11.516;2023-04-16T14:35:06;26.70;;;0.70;;
3817;SDS011;1924;48.078;11.516;2023-04-16T14:37:35;26.57;;;0.70;;
3817;SDS011;1924;48.078;11.516;2023-04-16T14:40:03;26.57;;;0.70;;
3817;SDS011;1924;48.078;11.516;2023-04-16T14:42:32;26.70;;;0.80;;
3817;SDS011;1924;48.078;11.516;2023-04-16T14:45:00;26.70;;;0.70;;
3817;SDS011;1924;48.078;11.516;2023-04-16T14:47:27;26.50;;;0.70;;
3817;SDS011;1924;48.078;11.516;2023-04-16T14:49:57;26.50;;;0.70;;
3817;SDS011;1924;48.078;11.516;2023-04-16T14:52:24;26.70;;;0.70;;
3817;SDS011;1924;48.078;11.516;2023-04-16T14:54:52;26.50;;;0.70;;
3817;SDS011;1924;48.078;11.516;2023-04-16T14:57:20;26.70;;;0.70;;
3817;SDS011;1924;48.078;11.516;2023-04-16T14:59:47;26.60;;;0.70;;
3817;SDS011;1924;48.078;11.516;2023-04-16T15:02:14;26.60;;;0.77;;
3817;SDS011;1924;48.078;11.516;2023-04-16T15:04:41;26.60;;;0.73;;
3817;SDS011;1924;48.078;11.516;2023-04-16T15:07:14;26.60;;;0.70;;
3817;SDS011;1924;48.078;11.516;2023-04-16T15:14:53;26.70;;;0.73;;
3817;SDS011;1924;48.078;11.516;2023-04-16T15:17:20;26.60;;;0.70;;
3817;SDS011;1924;48.078;11.516;2023-04-16T15:19:48;26.60;;;0.70;;
3817;SDS011;1924;48.078;11.516;2023-04-16T15:22:16;26.50;;;0.70;;
3817;SDS011;1924;48.078;11.516;2023-04-16T15:24:43;26.60;;;0.70;;
3817;SDS011;1924;48.078;11.516;2023-04-16T15:27:10;26.60;;;0.70;;
3817;SDS011;1924;48.078;11.516;2023-04-16T15:29:38;26.50;;;0.70;;
3817;SDS011;1924;48.078;11.516;2023-04-16T15:32:11;26.60;;;0.80;;
3817;SDS011;1924;48.078;11.516;2023-04-16T15:34:38;26.40;;;0.70;;
3817;SDS011;1924;48.078;11.516;2023-04-16T15:37:06;26.70;;;0.70;;
3817;SDS011;1924;48.078;11.516;2023-04-16T15:39:34;26.60;;;0.70;;
3817;SDS011;1924;48.078;11.516;2023-04-16T15:42:03;26.60;;;0.80;;
3817;SDS011;1924;48.078;11.516;2023-04-16T15:44:44;26.60;;;0.70;;
3817;SDS011;1924;48.078;11.516;2023-04-16T15:47:12;26.40;;;0.70;;
3817;SDS011;1924;48.078;11.516;2023-04-16T15:49:40;26.40;;;0.70;;
3817;SDS011;1924;48.078;11.516;2023-04-16T15:52:08;26.50;;;0.70;;
3817;SDS011;1924;48.078;11.516;2023-04-16T15:54:36;26.50;;;0.70;;
3817;SDS011;1924;48.078;11.516;2023-04-16T15:57:03;26.50;;;0.70;;
3817;SDS011;1924;48.078;11.516;2023-04-16T15:59:33;26.60;;;0.70;;
3817;SDS011;1924;48.078;11.516;2023-04-16T16:02:00;26.40;;;0.70;;
3817;SDS011;1924;48.078;11.516;2023-04-16T16:04:28;26.50;;;0.70;;
3817;SDS011;1924;48.078;11.516;2023-04-16T16:06:55;26.50;;;0.70;;
3817;SDS011;1924;48.078;11.516;2023-04-16T16:09:22;26.37;;;0.80;;
3817;SDS011;1924;48.078;11.516;2023-04-16T16:11:55;26.50;;;0.70;;
3817;SDS011;1924;48.078;11.516;2023-04-16T16:14:23;26.60;;;0.70;;
3817;SDS011;1924;48.078;11.516;2023-04-16T16:16:56;26.60;;;0.70;;
3817;SDS011;1924;48.078;11.516;2023-04-16T16:19:24;26.50;;;0.70;;
3817;SDS011;1924;48.078;11.516;2023-04-16T16:21:53;26.50;;;0.70;;
3817;SDS011;1924;48.078;11.516;2023-04-16T16:24:20;26.70;;;0.70;;
3817;SDS011;1924;48.078;11.516;2023-04-16T16:26:47;26.40;;;0.70;;
3817;SDS011;1924;48.078;11.516;2023-04-16T16:29:14;26.47;;;0.70;;
3817;SDS011;1924;48.078;11.516;2023-04-16T16:31:40;26.60;;;0.70;;
3817;SDS011;1924;48.078;11.516;2023-04-16T16:34:09;26.40;;;0.80;;
3817;SDS011;1924;48.078;11.516;2023-04-16T16:36:37;26.60;;;0.70;;
3817;SDS011;1924;48.078;11.516;2023-04-16T16:39:08;26.40;;;0.70;;
3817;SDS011;1924;48.078;11.516;2023-04-16T16:41:36;26.70;;;0.80;;
3817;SDS011;1924;48.078;11.516;2023-04-16T16:44:06;26.50;;;0.70;;
3817;SDS011;1924;48.078;11.516;2023-04-16T16:46:32;26.60;;;0.70;;
3817;SDS011;1924;48.078;11.516;2023-04-16T16:49:00;26.60;;;0.70;;
3817;SDS011;1924;48.078;11.516;2023-04-16T16:51:29;26.60;;;0.80;;
3817;SDS011;1924;48.078;11.516;2023-04-16T16:53:57;26.50;;;0.70;;
3817;SDS011;1924;48.078;11.516;2023-04-16T16:56:26;26.60;;;0.70;;
3817;SDS011;1924;48.078;11.516;2023-04-16T16:58:53;26.50;;;0.70;;
3817;SDS011;1924;48.078;11.516;2023-04-16T17:01:20;26.70;;;0.70;;
3817;SDS011;1924;48.078;11.516;2023-04-16T17:03:47;26.50;;;0.70;;
3817;SDS011;1924;48.078;11.516;2023-04-16T17:06:14;26.60;;;0.73;;
3817;SDS011;1924;48.078;11.516;2023-04-16T17:08:41;26.50;;;0.70;;
3817;SDS011;1924;48.078;11.516;2023-04-16T17:11:08;26.60;;;0.80;;
3817;SDS011;1924;48.078;11.516;2023-04-16T17:13:36;26.50;;;0.70;;
3817;SDS011;1924;48.078;11.516;2023-04-16T17:16:03;26.50;;;0.70;;
3817;SDS011;1924;48.078;11.516;2023-04-16T17:18:30;26.70;;;0.73;;
3817;SDS011;1924;48.078;11.516;2023-04-16T17:20:57;26.50;;;0.70;;
3817;SDS011;1924;48.078;11.516;2023-04-16T17:23:24;26.50;;;0.70;;
3817;SDS011;1924;48.078;11.516;2023-04-16T17:25:51;26.50;;;0.70;;
3817;SDS011;1924;48.078;11.516;2023-04-16T17:28:19;26.40;;;0.70;;
3817;SDS011;1924;48.078;11.516;2023-04-16T17:30:50;26.50;;;0.80;;
3817;SDS011;1924;48.078;11.516;2023-04-16T17:33:20;26.40;;;0.70;;
3817;SDS011;1924;48.078;11.516;2023-04-16T17:35:47;26.50;;;0.70;;
3817;SDS011;1924;48.078;11.516;2023-04-16T17:38:13;26.60;;;0.73;;
3817;SDS011;1924;48.078;11.516;2023-04-16T17:40:43;26.40;;;0.70;;
3817;SDS011;1924;48.078;11.516;2023-04-16T17:43:09;26.50;;;0.70;;
3817;SDS011;1924;48.078;11.516;2023-04-16T17:45:36;26.40;;;0.70;;
3817;SDS011;1924;48.078;11.516;2023-04-16T17:48:04;26.50;;;0.70;;
3817;SDS011;1924;48.078;11.516;2023-04-16T17:50:31;26.50;;;0.70;;
3817;SDS011;1924;48.078;11.516;2023-04-16T17:52:58;26.40;;;0.70;;
3817;SDS011;1924;48.078;11.516;2023-04-16T17:55:27;26.40;;;0.70;;
3817;SDS011;1924;48.078;11.516;2023-04-16T17:57:54;26.50;;;0.70;;
3817;SDS011;1924;48.078;11.516;2023-04-16T18:00:22;26.40;;;0.80;;
3817;SDS011;1924;48.078;11.516;2023-04-16T18:02:49;26.50;;;0.80;;
3817;SDS011;1924;48.078;11.516;2023-04-16T18:05:17;26.50;;;0.80;;
3817;SDS011;1924;48.078;11.516;2023-04-16T18:07:44;26.60;;;0.70;;
3817;SDS011;1924;48.078;11.516;2023-04-16T18:10:12;26.60;;;0.77;;
3817;SDS011;1924;48.078;11.516;2023-04-16T18:12:39;26.50;;;0.70;;
3817;SDS011;1924;48.078;11.516;2023-04-16T18:15:06;26.40;;;0.70;;
3817;SDS011;1924;48.078;11.516;2023-04-16T18:17:33;26.60;;;0.70;;
3817;SDS011;1924;48.078;11.516;2023-04-16T18:20:00;26.50;;;0.80;;
3817;SDS011;1924;48.078;11.516;2023-04-16T18:22:30;26.50;;;0.70;;
3817;SDS011;1924;48.078;11.516;2023-04-16T18:24:57;26.40;;;0.70;;
3817;SDS011;1924;48.078;11.516;2023-04-16T18:27:24;26.60;;;0.70;;
3817;SDS011;1924;48.078;11.516;2023-04-16T18:29:51;26.50;;;0.77;;
3817;SDS011;1924;48.078;11.516;2023-04-16T18:32:17;26.40;;;0.77;;
3817;SDS011;1924;48.078;11.516;2023-04-16T18:34:44;26.50;;;0.70;;
3817;SDS011;1924;48.078;11.516;2023-04-16T18:37:11;26.40;;;0.80;;
3817;SDS011;1924;48.078;11.516;2023-04-16T18:39:39;26.60;;;0.80;;
3817;SDS011;1924;48.078;11.516;2023-04-16T18:42:05;26.50;;;0.80;;
3817;SDS011;1924;48.078;11.516;2023-04-16T18:44:32;26.20;;;0.70;;
3817;SDS011;1924;48.078;11.516;2023-04-16T18:46:59;26.50;;;0.80;;
3817;SDS011;1924;48.078;11.516;2023-04-16T18:49:26;26.30;;;0.70;;
3817;SDS011;1924;48.078;11.516;2023-04-16T18:51:52;26.40;;;0.80;;
3817;SDS011;1924;48.078;11.516;2023-04-16T18:54:20;26.20;;;0.80;;
3817;SDS011;1924;48.078;11.516;2023-04-16T18:56:48;26.30;;;0.70;;
3817;SDS011;1924;48.078;11.516;2023-04-16T18:59:15;26.30;;;0.80;;
3817;SDS011;1924;48.078;11.516;2023-04-16T19:01:41;26.33;;;0.70;;
3817;SDS011;1924;48.078;11.516;2023-04-16T19:04:08;26.50;;;0.70;;
3817;SDS011;1924;48.078;11.516;2023-04-16T19:06:35;26.47;;;0.70;;
3817;SDS011;1924;48.078;11.516;2023-04-16T19:09:01;26.60;;;0.70;;
3817;SDS011;1924;48.078;11.516;2023-04-16T19:11:28;26.50;;;0.70;;
3817;SDS011;1924;48.078;11.516;2023-04-16T19:13:56;26.50;;;0.70;;
3817;SDS011;1924;48.078;11.516;2023-04-16T19:16:26;26.40;;;0.73;;
3817;SDS011;1924;48.078;11.516;2023-04-16T19:18:52;26.60;;;0.70;;
3817;SDS011;1924;48.078;11.516;2023-04-16T19:21:19;26.40;;;0.70;;
3817;SDS011;1924;48.078;11.516;2023-04-16T19:23:45;26.30;;;0.70;;
3817;SDS011;1924;48.078;11.516;2023-04-16T19:26:12;26.57;;;0.80;;
3817;SDS011;1924;48.078;11.516;2023-04-16T19:28:39;26.50;;;0.70;;
3817;SDS011;1924;48.078;11.516;2023-04-16T19:31:08;26.40;;;0.70;;
3817;SDS011;1924;48.078;11.516;2023-04-16T19:33:34;26.40;;;0.70;;
3817;SDS011;1924;48.078;11.516;2023-04-16T19:36:01;26.60;;;0.73;;
3817;SDS011;1924;48.078;11.516;2023-04-16T19:38:28;26.60;;;0.73;;
3817;SDS011;1924;48.078;11.516;2023-04-16T19:40:56;26.40;;;0.70;;
3817;SDS011;1924;48.078;11.516;2023-04-16T19:43:23;26.50;;;0.70;;
3817;SDS011;1924;48.078;11.516;2023-04-16T19:45:49;26.30;;;0.70;;
3817;SDS011;1924;48.078;11.516;2023-04-16T19:48:18;26.40;;;0.70;;
3817;SDS011;1924;48.078;11.516;2023-04-16T19:50:45;26.60;;;0.70;;
3817;SDS011;1924;48.078;11.516;2023-04-16T19:53:12;26.57;;;0.70;;
3817;SDS011;1924;48.078;11.516;2023-04-16T19:55:40;26.50;;;0.70;;
3817;SDS011;1924;48.078;11.516;2023-04-16T19:58:07;26.27;;;0.70;;
3817;SDS011;1924;48.078;11.516;2023-04-16T20:00:34;26.60;;;0.70;;
3817;SDS011;1924;48.078;11.516;2023-04-16T20:03:02;26.50;;;0.80;;
3817;SDS011;1924;48.078;11.516;2023-04-16T20:05:31;26.30;;;0.70;;
3817;SDS011;1924;48.078;11.516;2023-04-16T20:07:58;26.50;;;0.70;;
3817;SDS011;1924;48.078;11.516;2023-04-16T20:10:24;26.50;;;0.70;;
3817;SDS011;1924;48.078;11.516;2023-04-16T20:12:51;26.57;;;0.70;;
3817;SDS011;1924;48.078;11.516;2023-04-16T20:15:18;26.60;;;0.70;;
3817;SDS011;1924;48.078;11.516;2023-04-16T20:17:45;26.20;;;0.80;;
3817;SDS011;1924;48.078;11.516;2023-04-16T20:20:12;26.40;;;0.80;;
3817;SDS011;1924;48.078;11.516;2023-04-16T20:22:41;26.37;;;0.70;;
3817;SDS011;1924;48.078;11.516;2023-04-16T20:25:08;26.50;;;0.70;;
3817;SDS011;1924;48.078;11.516;2023-04-16T20:27:35;26.50;;;0.70;;
3817;SDS011;1924;48.078;11.516;2023-04-16T20:30:02;26.40;;;0.70;;
3817;SDS011;1924;48.078;11.516;2023-04-16T20:32:30;26.50;;;0.70;;
3817;SDS011;1924;48.078;11.516;2023-04-16T20:34:57;26.50;;;0.70;;
3817;SDS011;1924;48.078;11.516;2023-04-16T20:37:24;26.43;;;0.70;;
3817;SDS011;1924;48.078;11.516;2023-04-16T20:39:54;26.40;;;0.70;;
3817;SDS011;1924;48.078;11.516;2023-04-16T20:42:21;26.60;;;0.70;;
3817;SDS011;1924;48.078;11.516;2023-04-16T20:44:50;26.37;;;0.70;;
3817;SDS011;1924;48.078;11.516;2023-04-16T20:47:20;26.40;;;0.77;;
3817;SDS011;1924;48.078;11.516;2023-04-16T20:49:48;26.50;;;0.70;;
3817;SDS011;1924;48.078;11.516;2023-04-16T20:52:16;26.50;;;0.70;;
3817;SDS011;1924;48.078;11.516;2023-04-16T20:54:43;26.50;;;0.80;;
3817;SDS011;1924;48.078;11.516;2023-04-16T20:57:12;26.60;;;0.70;;
3817;SDS011;1924;48.078;11.516;2023-04-16T20:59:39;26.30;;;0.80;;
3817;SDS011;1924;48.078;11.516;2023-04-16T21:02:06;26.60;;;0.70;;
3817;SDS011;1924;48.078;11.516;2023-04-16T21:04:32;26.30;;;0.70;;
3817;SDS011;1924;48.078;11.516;2023-04-16T21:06:59;26.40;;;0.80;;
3817;SDS011;1924;48.078;11.516;2023-04-16T21:09:27;26.40;;;0.70;;
3817;SDS011;1924;48.078;11.516;2023-04-16T21:11:54;26.40;;;0.70;;